createdAt,value
2018-05-25T00:03:09.441Z,5.83
2018-05-25T00:07:12.072Z,5.23
2018-05-25T00:11:14.713Z,5.17
2018-05-25T00:15:17.360Z,4.53
2018-05-25T00:19:19.967Z,3.97
2018-05-25T00:23:23.431Z,3.50
2018-05-25T00:27:26.071Z,3.00
2018-05-25T00:31:29.473Z,2.40
2018-05-25T00:35:32.892Z,2.47
2018-05-25T00:39:35.536Z,2.87
2018-05-25T00:43:38.233Z,3.10
2018-05-25T00:47:40.944Z,2.60
2018-05-25T00:51:44.343Z,3.10
2018-05-25T00:55:46.952Z,3.07
2018-05-25T00:59:49.588Z,2.77
2018-05-25T01:03:52.232Z,3.20
2018-05-25T01:07:54.875Z,3.03
2018-05-25T01:11:57.568Z,3.20
2018-05-25T01:16:00.174Z,3.40
2018-05-25T01:20:03.571Z,3.20
2018-05-25T01:24:06.216Z,3.17
2018-05-25T01:28:08.883Z,3.20
2018-05-25T01:32:11.581Z,2.83
2018-05-25T01:36:14.188Z,2.80
2018-05-25T01:40:16.832Z,2.93
2018-05-25T01:44:20.242Z,2.80
2018-05-25T01:48:23.660Z,2.90
2018-05-25T01:52:26.324Z,3.07
2018-05-25T01:56:29.749Z,2.97
2018-05-25T02:00:32.445Z,3.07
2018-05-25T02:04:35.097Z,2.90
2018-05-25T02:08:37.745Z,3.20
2018-05-25T02:12:40.343Z,3.03
2018-05-25T02:16:42.994Z,3.30
2018-05-25T02:20:45.632Z,3.13
2018-05-25T02:24:48.277Z,2.90
2018-05-25T02:28:50.921Z,3.60
2018-05-25T02:32:53.531Z,3.57
2018-05-25T02:36:56.949Z,3.40
2018-05-25T02:40:59.590Z,3.90
2018-05-25T02:45:02.252Z,3.10
2018-05-25T02:49:04.898Z,3.60
2018-05-25T02:53:08.271Z,3.50
2018-05-25T02:57:11.013Z,3.70
2018-05-25T03:01:13.597Z,3.03
2018-05-25T03:05:16.236Z,3.33
2018-05-25T03:09:18.983Z,3.60
2018-05-25T03:13:21.583Z,3.67
2018-05-25T03:17:24.361Z,3.57
2018-05-25T03:21:26.996Z,4.23
2018-05-25T03:25:29.636Z,4.00
2018-05-25T03:29:32.306Z,3.47
2018-05-25T03:33:35.716Z,3.43
2018-05-25T03:37:39.127Z,3.57
2018-05-25T03:41:43.503Z,3.27
2018-05-25T03:45:46.154Z,3.27
2018-05-25T03:49:48.815Z,3.73
2018-05-25T03:53:51.456Z,3.50
2018-05-25T03:57:54.092Z,3.07
2018-05-25T04:01:59.484Z,3.03
2018-05-25T04:06:02.984Z,3.60
2018-05-25T04:10:05.650Z,3.40
2018-05-25T04:14:09.054Z,3.17
2018-05-25T04:18:12.513Z,4.07
2018-05-25T04:22:15.152Z,3.87
2018-05-25T04:26:18.569Z,3.43
2018-05-25T04:30:21.168Z,3.13
2018-05-25T04:34:23.859Z,3.33
2018-05-25T04:38:26.501Z,3.87
2018-05-25T04:42:29.142Z,3.93
2018-05-25T04:46:31.784Z,3.40
2018-05-25T04:50:34.388Z,3.93
2018-05-25T04:54:37.791Z,3.63
2018-05-25T04:58:41.190Z,3.37
2018-05-25T05:02:44.591Z,3.00
2018-05-25T05:06:47.231Z,3.80
2018-05-25T05:10:49.832Z,3.30
2018-05-25T05:14:52.527Z,3.53
2018-05-25T05:18:55.144Z,3.27
2018-05-25T05:22:57.797Z,3.97
2018-05-25T05:27:00.493Z,3.20
2018-05-25T05:31:03.081Z,3.70
2018-05-25T05:35:05.730Z,3.70
2018-05-25T05:39:08.420Z,3.13
2018-05-25T05:43:11.138Z,3.80
2018-05-25T05:47:13.776Z,3.43
2018-05-25T05:51:17.149Z,3.53
2018-05-25T05:55:19.844Z,3.60
2018-05-25T05:59:23.279Z,3.43
2018-05-25T06:03:26.683Z,3.70
2018-05-25T06:07:30.083Z,3.67
2018-05-25T06:11:32.684Z,3.73
2018-05-25T06:15:36.095Z,4.53
2018-05-25T06:19:39.556Z,3.93
2018-05-25T06:23:42.712Z,4.07
2018-05-25T06:27:45.624Z,3.60
2018-05-25T06:31:48.251Z,3.40
2018-05-25T06:35:50.956Z,4.10
2018-05-25T06:39:53.604Z,3.77
2018-05-25T06:43:56.261Z,4.17
2018-05-25T06:47:58.897Z,4.30
2018-05-25T06:52:01.511Z,3.80
2018-05-25T06:56:04.930Z,4.17
2018-05-25T07:00:08.339Z,3.73
2018-05-25T07:04:11.744Z,3.87
2018-05-25T07:08:15.207Z,3.80
2018-05-25T07:12:18.102Z,3.40
2018-05-25T07:16:20.755Z,4.53
2018-05-25T07:20:23.394Z,4.17
2018-05-25T07:24:26.125Z,4.00
2018-05-25T07:28:28.763Z,3.70
2018-05-25T07:32:31.369Z,4.00
2018-05-25T07:36:34.069Z,3.73
2018-05-25T07:40:37.533Z,3.77
2018-05-25T07:44:40.171Z,3.87
2018-05-25T07:48:43.592Z,4.73
2018-05-25T07:52:46.195Z,4.47
2018-05-25T07:56:48.836Z,3.97
2018-05-25T08:00:51.473Z,3.93
2018-05-25T08:04:54.112Z,4.40
2018-05-25T08:08:56.792Z,4.20
2018-05-25T08:12:59.387Z,4.33
2018-05-25T08:17:02.032Z,4.30
2018-05-25T08:21:04.705Z,4.33
2018-05-25T08:25:07.397Z,4.63
2018-05-25T08:29:10.042Z,3.77
2018-05-25T08:33:12.972Z,4.00
2018-05-25T08:37:15.615Z,4.20
2018-05-25T08:41:18.248Z,3.73
2018-05-25T08:45:20.900Z,4.33
2018-05-25T08:49:23.538Z,3.93
2018-05-25T08:53:26.140Z,4.33
2018-05-25T08:57:28.778Z,3.77
2018-05-25T09:01:32.185Z,4.47
2018-05-25T09:05:35.652Z,4.43
2018-05-25T09:13:35.377Z,3.90
2018-05-25T09:17:38.013Z,4.00
2018-05-25T09:21:40.699Z,3.80
2018-05-25T09:25:43.328Z,4.27
2018-05-25T09:29:45.973Z,4.20
2018-05-25T09:33:48.620Z,4.20
2018-05-25T09:37:51.264Z,4.80
2018-05-25T09:41:54.677Z,4.53
2018-05-25T09:45:58.101Z,4.20
2018-05-25T09:50:00.742Z,4.27
2018-05-25T09:54:03.405Z,3.90
2018-05-25T09:58:06.040Z,4.17
2018-05-25T10:02:09.443Z,4.20
2018-05-25T10:06:12.853Z,3.83
2018-05-25T10:10:16.239Z,3.93
2018-05-25T10:14:18.876Z,3.27
2018-05-25T10:18:21.575Z,3.90
2018-05-25T10:22:24.214Z,3.67
2018-05-25T10:26:26.856Z,3.67
2018-05-25T10:30:29.497Z,4.17
2018-05-25T10:34:32.136Z,3.67
2018-05-25T10:38:34.780Z,3.57
2018-05-25T10:42:38.184Z,3.77
2018-05-25T10:46:40.821Z,3.60
2018-05-25T10:50:43.460Z,3.20
2018-05-25T10:54:46.882Z,3.17
2018-05-25T10:58:49.530Z,2.97
2018-05-25T11:02:52.177Z,3.10
2018-05-25T11:06:54.784Z,3.30
2018-05-25T11:10:57.478Z,3.20
2018-05-25T11:15:00.115Z,2.83
2018-05-25T11:19:03.527Z,2.97
2018-05-25T11:23:06.894Z,2.83
2018-05-25T11:27:09.537Z,2.87
2018-05-25T11:31:12.180Z,2.97
2018-05-25T11:35:14.836Z,2.60
2018-05-25T11:39:17.596Z,3.40
2018-05-25T11:43:20.276Z,2.43
2018-05-25T11:47:22.953Z,2.60
2018-05-25T11:51:26.369Z,2.90
2018-05-25T11:55:29.777Z,2.70
2018-05-25T11:59:33.149Z,3.20
2018-05-25T12:03:35.799Z,3.13
2018-05-25T12:07:39.211Z,3.03
2018-05-25T12:11:41.848Z,3.00
2018-05-25T12:15:44.550Z,2.93
2018-05-25T12:19:47.921Z,2.63
2018-05-25T12:23:50.561Z,2.80
2018-05-25T12:27:53.206Z,3.20
2018-05-25T12:31:55.853Z,3.00
2018-05-25T12:35:59.273Z,3.17
2018-05-25T12:40:01.881Z,2.73
2018-05-25T12:44:04.528Z,2.70
2018-05-25T12:48:07.200Z,2.97
2018-05-25T12:52:10.604Z,2.97
2018-05-25T12:56:14.033Z,3.17
2018-05-25T13:00:16.663Z,3.07
2018-05-25T13:04:19.303Z,3.10
2018-05-25T13:08:21.945Z,2.73
2018-05-25T13:12:24.590Z,3.03
2018-05-25T13:16:27.259Z,3.03
2018-05-25T13:20:29.895Z,3.40
2018-05-25T13:24:32.575Z,3.13
2018-05-25T13:28:35.251Z,3.57
2018-05-25T13:32:37.884Z,3.60
2018-05-25T13:36:40.490Z,3.63
2018-05-25T13:40:44.343Z,3.20
2018-05-25T13:44:47.008Z,3.03
2018-05-25T13:48:49.652Z,3.80
2018-05-25T13:52:52.345Z,3.93
2018-05-25T13:56:54.985Z,3.37
2018-05-25T14:00:57.623Z,3.50
2018-05-25T14:05:00.271Z,3.40
2018-05-25T14:09:02.912Z,3.53
2018-05-25T14:13:05.545Z,3.77
2018-05-25T14:17:08.152Z,3.70
2018-05-25T14:21:10.799Z,3.40
2018-05-25T14:25:13.504Z,3.73
2018-05-25T14:29:16.187Z,4.00
2018-05-25T14:33:18.886Z,3.40
2018-05-25T14:37:21.487Z,3.27
2018-05-25T14:41:24.126Z,4.60
2018-05-25T14:45:27.539Z,3.20
2018-05-25T14:49:30.940Z,3.97
2018-05-25T14:53:34.713Z,3.30
2018-05-25T14:57:37.569Z,3.10
2018-05-25T15:01:40.211Z,3.83
2018-05-25T15:05:42.855Z,3.83
2018-05-25T15:09:46.332Z,3.70
2018-05-25T15:13:48.939Z,3.20
2018-05-25T15:17:51.548Z,4.10
2018-05-25T15:21:54.293Z,3.50
2018-05-25T15:25:57.701Z,4.00
2018-05-25T15:30:01.104Z,3.50
2018-05-25T15:34:04.515Z,3.57
2018-05-25T15:38:07.884Z,3.20
2018-05-25T15:42:10.600Z,3.30
2018-05-25T15:46:13.235Z,3.23
2018-05-25T15:50:15.880Z,3.40
2018-05-25T15:54:18.512Z,3.57
2018-05-25T15:58:21.112Z,3.30
2018-05-25T16:02:23.825Z,3.60
2018-05-25T16:06:26.407Z,3.20
2018-05-25T16:10:29.112Z,3.30
2018-05-25T16:14:31.748Z,3.40
2018-05-25T16:18:34.356Z,3.03
2018-05-25T16:22:36.992Z,2.90
2018-05-25T16:26:40.392Z,3.67
2018-05-25T16:30:44.443Z,3.20
2018-05-25T16:34:47.079Z,3.17
2018-05-25T16:38:49.685Z,3.67
2018-05-25T16:42:52.332Z,3.37
2018-05-25T16:46:54.968Z,3.30
2018-05-25T16:50:58.368Z,3.43
2018-05-25T16:55:01.008Z,3.10
2018-05-25T16:59:03.612Z,3.27
2018-05-25T17:03:06.247Z,3.40
2018-05-25T17:07:09.662Z,3.00
2018-05-25T17:11:12.303Z,3.47
2018-05-25T17:15:14.943Z,3.27
2018-05-25T17:19:17.544Z,3.13
2018-05-25T17:23:20.245Z,2.73
2018-05-25T17:27:22.887Z,3.30
2018-05-25T17:31:26.294Z,3.40
2018-05-25T17:35:29.699Z,3.40
2018-05-25T17:39:33.059Z,2.70
2018-05-25T17:43:35.704Z,3.80
2018-05-25T17:47:39.108Z,3.33
2018-05-25T17:51:42.568Z,3.40
2018-05-25T17:55:45.201Z,3.60
2018-05-25T17:59:48.564Z,3.23
2018-05-25T18:03:51.208Z,3.60
2018-05-25T18:07:53.885Z,3.17
2018-05-25T18:11:57.293Z,3.67
2018-05-25T18:16:00.702Z,3.80
2018-05-25T18:20:03.353Z,4.60
2018-05-25T18:24:06.000Z,5.60
2018-05-25T18:28:08.644Z,5.10
2018-05-25T18:32:11.283Z,3.90
2018-05-25T18:36:13.928Z,3.47
2018-05-25T18:40:17.303Z,3.20
2018-05-25T18:44:19.950Z,3.13
2018-05-25T18:48:22.634Z,3.33
2018-05-25T18:52:25.272Z,3.60
2018-05-25T18:56:27.963Z,3.67
2018-05-25T19:00:30.634Z,3.87
2018-05-25T19:04:33.330Z,3.87
2018-05-25T19:08:35.950Z,3.63
2018-05-25T19:12:38.597Z,3.57
2018-05-25T19:16:41.302Z,3.53
2018-05-25T19:20:44.415Z,4.10
2018-05-25T19:24:47.072Z,3.47
2018-05-25T19:28:49.773Z,3.93
2018-05-25T19:32:52.413Z,3.27
2018-05-25T19:36:55.059Z,3.70
2018-05-25T19:40:57.715Z,3.40
2018-05-25T19:45:00.351Z,3.50
2018-05-25T19:49:03.032Z,4.00
2018-05-25T19:53:05.673Z,4.23
2018-05-25T19:57:08.308Z,4.20
2018-05-25T20:01:11.704Z,4.50
2018-05-25T20:05:14.352Z,4.17
2018-05-25T20:09:16.989Z,4.00
2018-05-25T20:13:19.634Z,3.53
2018-05-25T20:17:22.271Z,3.90
2018-05-25T20:21:24.886Z,4.07
2018-05-25T20:25:28.300Z,4.00
2018-05-25T20:29:30.940Z,3.60
2018-05-25T20:33:33.585Z,4.30
2018-05-25T20:37:36.284Z,4.03
2018-05-25T20:41:38.881Z,3.97
2018-05-25T20:45:41.519Z,3.37
2018-05-25T20:49:44.193Z,3.37
2018-05-25T20:53:47.008Z,3.50
2018-05-25T20:57:49.644Z,3.57
2018-05-25T21:01:52.280Z,3.03
2018-05-25T21:05:55.679Z,3.33
2018-05-25T21:09:58.324Z,3.27
2018-05-25T21:14:00.916Z,3.00
2018-05-25T21:18:03.560Z,3.23
2018-05-25T21:22:06.955Z,3.10
2018-05-25T21:26:10.360Z,3.27
2018-05-25T21:30:13.763Z,3.10
2018-05-25T21:34:17.173Z,2.83
2018-05-25T21:38:20.640Z,2.77
2018-05-25T21:42:23.283Z,2.73
2018-05-25T21:46:26.727Z,2.27
2018-05-25T21:50:29.325Z,2.57
2018-05-25T21:54:32.028Z,2.50
2018-05-25T21:58:34.664Z,2.40
2018-05-25T22:02:37.308Z,3.17
2018-05-25T22:06:39.906Z,2.63
2018-05-25T22:10:42.570Z,2.20
2018-05-25T22:14:45.217Z,2.20
2018-05-25T22:18:47.972Z,2.40
2018-05-25T22:22:50.614Z,2.63
2018-05-25T22:26:53.213Z,2.67
2018-05-25T22:30:55.904Z,2.10
2018-05-25T22:34:58.544Z,2.87
2018-05-25T22:39:01.211Z,2.00
2018-05-25T22:43:15.598Z,2.30
2018-05-25T22:47:30.792Z,1.87
2018-05-25T22:51:45.249Z,2.30
2018-05-25T22:55:48.660Z,2.17
2018-05-25T22:59:52.060Z,2.10
2018-05-25T23:03:55.428Z,2.57
2018-05-25T23:07:58.072Z,3.00
2018-05-25T23:12:00.772Z,2.30
2018-05-25T23:16:03.415Z,2.30
2018-05-25T23:20:06.057Z,2.20
2018-05-25T23:24:08.726Z,2.07
2018-05-25T23:28:11.361Z,2.43
2018-05-25T23:32:14.004Z,2.20
2018-05-25T23:36:16.649Z,2.30
2018-05-25T23:40:19.297Z,2.63
2018-05-25T23:44:21.900Z,2.00
2018-05-25T23:48:24.542Z,2.00
2018-05-25T23:52:27.945Z,2.80
2018-05-25T23:56:31.344Z,1.83
